Terminal Aerodrome Forecast
Issued by NWS

Home | Current Version | Previous Version | Text Only | Print | Product List | Glossary On
Versions: 1 2 3 4 5 6 7 8 9 10 11 12 13 14 15 16 17 18 19 20
000
FTUS43 KPAH 132300
TAFCGI
TAF
KCGI 132328Z 1400/1424 20012G20KT P6SM VCSH SCT025 OVC040
      TEMPO 1401/1403 3SM +TSRA BR BKN025CB
     FM140500 20015G25KT P6SM -SHRA OVC050
      TEMPO 1405/1407 VRB20G35KT 2SM -TSRA BR BKN020CB
     FM141300 31012G22KT 5SM -SHRA BR OVC015
     FM141800 33015G25KT 4SM -RA BR OVC015=

USA.gov is the U.S. government's official web portal to all federal, state and local government web resources and services.